Terminal Aerodrome Forecast
Issued by NWS Sterling, VA

Current Version | Previous Version | Graphics & Text | Print | Product List | Glossary On
Versions: 1 2 3 4 5 6 7 8 9 10 11 12 13 14 15 16 17 18 19 20 21 22 23 24 25 26 27 28 29
000
FTUS41 KLWX 282058 AAA
TAFDCA
TAF AMD
KDCA 282058Z 2821/2918 12008KT P6SM VCSH SCT040
     FM282300 15005KT P6SM FEW040
     FM290000 15005KT P6SM SKC
     FM290900 VRB03KT P6SM SKC
     FM291500 18007KT P6SM FEW250
     FM291600 17008KT P6SM SCT040=

USA.gov is the U.S. government's official web portal to all federal, state and local government web resources and services.